LRCL/CLJ METAR and TAF weather

Enter ICAO airport designator
Station Type Date Time Source
LRCL METAR 2019/04/19 08:00 UTC NOAA

LRCL 190800Z 31015KT CAVOK 15/M00 Q1025


Station Type Date Time Source
LRCL Decoded METAR 2019/04/19 08:00 UTC NOAA

Cluj-Napoca, Romania (LRCL) 46-47N 023-34E 413M
Apr 19, 2019 - 04:00 AM EDT / 2019.04.19 0800 UTC
Wind: from the NW (310 degrees) at 17 MPH (15 KT):0
Visibility: greater than 7 mile(s):0
Temperature: 59 F (15 C)
Dew Point: 32 F (0 C)
Relative Humidity: 35%
Pressure (altimeter): 30.27 in. Hg (1025 hPa)
ob: LRCL 190800Z 31015KT CAVOK 15/M00 Q1025
cycle: 8

Station Type Date Time Source
LRCL TAF 2007/05/23 16:57 UTC NOAA

TAF
AMD LRCL 231657Z 231607 VRB02MPS 9999 SCT030 BKN080
TEMPO 1719 VRB15G20MPS 1500 TSRAGR SCT010 BKN020CB OVC080

Example: see airport list